createdAt,value
2022-12-25T00:01:24.114Z,224.60
2022-12-25T00:03:52.308Z,243.50
2022-12-25T00:06:20.402Z,226.10
2022-12-25T00:08:47.799Z,186.30
2022-12-25T00:11:17.547Z,121.70
2022-12-25T00:13:44.765Z,143.90
2022-12-25T00:16:19.977Z,151.60
2022-12-25T00:18:48.036Z,163.20
2022-12-25T00:21:15.950Z,106.10
2022-12-25T00:23:43.593Z,82.80
2022-12-25T00:26:17.987Z,124.50
2022-12-25T00:28:45.625Z,76.30
2022-12-25T00:31:15.869Z,62.50
2022-12-25T00:33:45.461Z,51.90
2022-12-25T00:36:15.396Z,142.80
2022-12-25T00:38:43.426Z,127.30
2022-12-25T00:41:16.301Z,101.10
2022-12-25T00:43:43.688Z,76.30
2022-12-25T00:46:12.896Z,159.10
2022-12-25T00:48:40.746Z,139.20
2022-12-25T00:51:11.306Z,110.60
2022-12-25T00:53:39.000Z,96.20
2022-12-25T00:56:07.799Z,131.80
2022-12-25T00:58:35.623Z,96.80
2022-12-25T01:01:03.685Z,92.00
2022-12-25T01:03:31.399Z,113.80
2022-12-25T01:06:01.219Z,88.30
2022-12-25T01:08:31.024Z,62.70
2022-12-25T01:11:00.231Z,83.40
2022-12-25T01:13:29.161Z,71.10
2022-12-25T01:15:56.367Z,70.60
2022-12-25T01:18:24.986Z,60.00
2022-12-25T01:20:52.474Z,45.80
2022-12-25T01:23:19.700Z,38.80
2022-12-25T01:25:46.801Z,39.80
2022-12-25T01:28:14.107Z,38.70
2022-12-25T01:30:48.508Z,32.40
2022-12-25T01:33:15.756Z,24.20
2022-12-25T01:35:42.897Z,23.70
2022-12-25T01:38:10.053Z,20.90
2022-12-25T01:40:37.187Z,22.60
2022-12-25T01:43:05.230Z,21.00
2022-12-25T01:45:42.451Z,24.60
2022-12-25T01:48:14.876Z,24.90
2022-12-25T01:50:46.343Z,26.70
2022-12-25T01:53:14.372Z,27.50
2022-12-25T01:55:43.784Z,24.70
2022-12-25T01:58:11.033Z,24.00
2022-12-25T02:00:38.232Z,21.10
2022-12-25T02:03:06.034Z,23.10
2022-12-25T02:05:35.063Z,20.70
2022-12-25T02:08:08.430Z,17.90
2022-12-25T02:10:35.827Z,20.00
2022-12-25T02:13:03.285Z,18.80
2022-12-25T02:15:44.699Z,27.30
2022-12-25T02:18:34.326Z,21.70
2022-12-25T02:21:23.304Z,21.90
2022-12-25T02:24:01.500Z,24.60
2022-12-25T02:27:03.027Z,24.50
2022-12-25T02:29:33.049Z,34.00
2022-12-25T02:32:14.936Z,34.80
2022-12-25T02:34:53.026Z,26.60
2022-12-25T02:37:29.569Z,29.30
2022-12-25T02:40:06.858Z,32.30
2022-12-25T02:43:02.635Z,25.40
2022-12-25T02:45:59.722Z,37.00
2022-12-25T02:48:50.011Z,61.30
2022-12-25T02:51:38.698Z,53.70
2022-12-25T02:54:31.102Z,53.90
2022-12-25T02:57:21.300Z,53.10
2022-12-25T03:00:09.535Z,50.30
2022-12-25T03:02:59.089Z,58.20
2022-12-25T03:05:46.358Z,55.30
2022-12-25T03:08:19.333Z,46.00
2022-12-25T03:11:14.324Z,105.40
2022-12-25T03:13:45.697Z,84.60
2022-12-25T03:16:32.478Z,54.20
2022-12-25T03:19:00.327Z,44.10
2022-12-25T03:21:59.709Z,56.50
2022-12-25T03:24:46.499Z,123.60
2022-12-25T03:27:13.597Z,64.00
2022-12-25T03:29:59.689Z,196.60
2022-12-25T03:35:25.723Z,168.30
2022-12-25T03:38:46.617Z,97.00
2022-12-25T03:41:51.629Z,49.20
2022-12-25T03:44:46.637Z,36.50
2022-12-25T03:47:57.732Z,59.50
2022-12-25T03:50:56.051Z,37.30
2022-12-25T03:53:54.591Z,50.80
2022-12-25T03:56:41.423Z,269.90
2022-12-25T03:59:27.392Z,248.90
2022-12-25T04:02:13.379Z,73.10
2022-12-25T04:07:44.880Z,58.90
2022-12-25T04:10:30.622Z,44.00
2022-12-25T04:13:16.567Z,41.30
2022-12-25T04:16:02.291Z,35.90
2022-12-25T04:18:48.318Z,33.60
2022-12-25T04:21:34.587Z,38.60
2022-12-25T04:24:20.323Z,35.80
2022-12-25T04:27:06.014Z,55.40
2022-12-25T04:29:51.497Z,78.90
2022-12-25T04:32:37.210Z,78.80
2022-12-25T04:35:23.441Z,52.90
2022-12-25T04:37:50.644Z,49.70
2022-12-25T04:40:18.029Z,50.30
2022-12-25T04:42:45.106Z,47.90
2022-12-25T04:45:12.383Z,48.60
2022-12-25T04:47:39.516Z,329.50
2022-12-25T04:50:07.401Z,133.60
2022-12-25T04:52:41.398Z,79.70
2022-12-25T04:55:10.513Z,83.90
2022-12-25T04:57:38.285Z,67.10
2022-12-25T05:00:06.578Z,74.00
2022-12-25T05:02:33.882Z,96.60
2022-12-25T05:05:01.405Z,77.80
2022-12-25T05:07:28.726Z,63.00
2022-12-25T05:09:55.775Z,47.90
2022-12-25T05:12:22.918Z,57.60
2022-12-25T05:14:50.580Z,57.00
2022-12-25T05:17:17.731Z,52.90
2022-12-25T05:19:44.942Z,48.10
2022-12-25T05:22:12.009Z,44.80
2022-12-25T05:24:39.132Z,41.30
2022-12-25T05:27:06.207Z,41.20
2022-12-25T05:29:33.333Z,44.30
2022-12-25T05:32:00.557Z,52.00
2022-12-25T05:34:27.689Z,69.80
2022-12-25T05:36:56.593Z,55.80
2022-12-25T05:39:24.542Z,63.80
2022-12-25T05:41:51.950Z,76.60
2022-12-25T05:44:19.159Z,82.30
2022-12-25T05:46:46.423Z,78.90
2022-12-25T05:49:13.684Z,55.00
2022-12-25T05:51:40.808Z,38.60
2022-12-25T05:54:08.118Z,33.60
2022-12-25T05:56:35.342Z,32.40
2022-12-25T05:59:02.542Z,40.80
2022-12-25T06:01:29.756Z,38.10
2022-12-25T06:03:57.711Z,99.40
2022-12-25T06:06:25.027Z,192.90
2022-12-25T06:08:55.148Z,131.00
2022-12-25T06:11:22.620Z,130.80
2022-12-25T06:13:51.979Z,109.40
2022-12-25T06:16:20.180Z,87.70
2022-12-25T06:18:52.128Z,107.10
2022-12-25T06:21:19.454Z,192.20
2022-12-25T06:23:46.769Z,137.20
2022-12-25T06:26:17.377Z,247.60
2022-12-25T06:28:45.678Z,128.00
2022-12-25T06:31:16.067Z,53.30
2022-12-25T06:33:43.959Z,66.30
2022-12-25T06:36:15.730Z,52.50
2022-12-25T06:38:43.009Z,105.50
2022-12-25T06:41:13.005Z,71.30
2022-12-25T06:43:40.365Z,83.20
2022-12-25T06:46:11.234Z,66.60
2022-12-25T06:48:40.354Z,64.20
2022-12-25T06:51:08.068Z,65.70
2022-12-25T06:53:40.206Z,72.10
2022-12-25T06:56:15.775Z,65.30
2022-12-25T06:58:51.271Z,77.30
2022-12-25T07:01:32.466Z,92.50
2022-12-25T07:04:11.580Z,112.50
2022-12-25T07:06:38.746Z,147.50
2022-12-25T07:09:05.922Z,134.40
2022-12-25T07:11:33.168Z,78.90
2022-12-25T07:14:00.168Z,102.50
2022-12-25T07:16:27.346Z,72.20
2022-12-25T07:18:54.586Z,116.20
2022-12-25T07:21:22.199Z,75.20
2022-12-25T07:23:50.396Z,65.00
2022-12-25T07:26:17.683Z,64.40
2022-12-25T07:28:45.108Z,107.10
2022-12-25T07:31:17.268Z,110.60
2022-12-25T07:33:45.477Z,103.90
2022-12-25T07:36:14.003Z,100.80
2022-12-25T07:38:44.419Z,93.70
2022-12-25T07:41:13.555Z,135.90
2022-12-25T07:43:41.020Z,175.40
2022-12-25T07:46:08.473Z,156.20
2022-12-25T07:48:36.563Z,141.30
2022-12-25T07:51:06.765Z,99.20
2022-12-25T07:53:35.365Z,97.90
2022-12-25T07:56:07.461Z,167.30
2022-12-25T07:58:35.284Z,153.30
2022-12-25T08:01:09.023Z,144.80
2022-12-25T08:03:37.105Z,177.90
2022-12-25T08:06:07.123Z,156.60
2022-12-25T08:08:34.925Z,146.00
2022-12-25T08:11:02.317Z,68.10
2022-12-25T08:13:34.015Z,71.20
2022-12-25T08:16:03.236Z,110.10
2022-12-25T08:18:31.886Z,108.60
2022-12-25T08:21:04.208Z,111.30
2022-12-25T08:23:31.471Z,148.30
2022-12-25T08:26:05.407Z,120.90
2022-12-25T08:28:33.731Z,102.40
2022-12-25T08:31:06.939Z,165.80
2022-12-25T08:33:35.879Z,152.50
2022-12-25T08:36:08.002Z,98.70
2022-12-25T08:38:35.432Z,78.50
2022-12-25T08:41:02.864Z,72.30
2022-12-25T08:43:30.435Z,82.00
2022-12-25T08:45:57.680Z,94.00
2022-12-25T08:48:24.894Z,89.60
2022-12-25T08:50:53.799Z,77.70
2022-12-25T08:53:21.162Z,93.40
2022-12-25T08:55:48.448Z,136.90
2022-12-25T08:58:16.633Z,183.00
2022-12-25T09:00:43.907Z,138.50
2022-12-25T09:03:11.158Z,124.50
2022-12-25T09:05:38.639Z,107.20
2022-12-25T09:08:05.934Z,114.10
2022-12-25T09:10:37.050Z,106.50
2022-12-25T09:13:05.163Z,117.50
2022-12-25T09:15:32.523Z,132.00
2022-12-25T09:17:59.743Z,106.60
2022-12-25T09:20:26.916Z,113.80
2022-12-25T09:22:53.982Z,117.70
2022-12-25T09:25:21.162Z,193.20
2022-12-25T09:27:48.263Z,173.30
2022-12-25T09:30:15.596Z,141.30
2022-12-25T09:32:42.750Z,105.40
2022-12-25T09:35:10.227Z,78.10
2022-12-25T09:37:37.300Z,73.50
2022-12-25T09:40:05.208Z,73.40
2022-12-25T09:42:34.566Z,48.20
2022-12-25T09:45:05.925Z,93.30
2022-12-25T09:47:38.576Z,128.70
2022-12-25T09:50:14.148Z,133.60
2022-12-25T09:55:24.303Z,75.10
2022-12-25T09:57:57.548Z,78.70
2022-12-25T10:00:40.950Z,78.50
2022-12-25T10:03:25.179Z,82.10
2022-12-25T10:06:01.409Z,73.70
2022-12-25T10:08:53.414Z,61.00
2022-12-25T10:11:52.900Z,63.70
2022-12-25T10:14:31.144Z,50.90
2022-12-25T10:16:58.507Z,56.80
2022-12-25T10:19:51.982Z,61.70
2022-12-25T10:22:42.998Z,70.80
2022-12-25T10:25:21.685Z,87.50
2022-12-25T10:28:05.714Z,108.80
2022-12-25T10:30:32.841Z,137.40
2022-12-25T10:33:00.647Z,120.40
2022-12-25T10:35:29.887Z,120.80
2022-12-25T10:38:16.508Z,120.80
2022-12-25T10:41:14.153Z,121.50
2022-12-25T10:43:52.180Z,100.10
2022-12-25T10:46:21.182Z,58.80
2022-12-25T10:48:57.496Z,45.90
2022-12-25T10:51:33.091Z,40.50
2022-12-25T10:56:28.985Z,39.10
2022-12-25T10:59:06.990Z,41.30
2022-12-25T11:01:34.125Z,73.40
2022-12-25T11:04:01.851Z,94.80
2022-12-25T11:06:32.738Z,73.50
2022-12-25T11:09:02.342Z,45.70
2022-12-25T11:11:31.464Z,57.60
2022-12-25T11:14:01.539Z,60.00
2022-12-25T11:16:33.941Z,86.20
2022-12-25T11:19:01.210Z,92.00
2022-12-25T11:21:34.208Z,101.80
2022-12-25T11:24:03.430Z,97.60
2022-12-25T11:26:37.334Z,121.40
2022-12-25T11:29:17.766Z,105.30
2022-12-25T11:31:47.620Z,56.60
2022-12-25T11:34:35.566Z,54.50
2022-12-25T11:37:04.545Z,80.60
2022-12-25T11:39:37.627Z,148.30
2022-12-25T11:42:16.399Z,73.30
2022-12-25T11:45:03.723Z,72.80
2022-12-25T11:47:33.776Z,83.20
2022-12-25T11:50:27.599Z,142.80
2022-12-25T11:52:56.122Z,121.00
2022-12-25T11:55:36.801Z,182.50
2022-12-25T11:58:16.130Z,138.10
2022-12-25T12:00:46.724Z,84.40
2022-12-25T12:03:19.802Z,39.30
2022-12-25T12:05:51.382Z,178.60
2022-12-25T12:08:18.480Z,377.70
2022-12-25T12:11:16.747Z,316.00
2022-12-25T12:14:10.873Z,113.50
2022-12-25T12:16:38.345Z,58.10
2022-12-25T12:19:24.810Z,75.00
2022-12-25T12:21:54.744Z,52.50
2022-12-25T12:24:24.388Z,89.90
2022-12-25T12:27:07.142Z,106.90
2022-12-25T12:29:43.257Z,66.30
2022-12-25T12:32:44.660Z,73.10
2022-12-25T12:35:19.471Z,72.80
2022-12-25T12:37:51.556Z,83.50
2022-12-25T12:40:24.214Z,87.00
2022-12-25T12:42:52.543Z,68.80
2022-12-25T12:45:25.687Z,74.30
2022-12-25T12:47:53.525Z,76.20
2022-12-25T12:50:36.720Z,82.70
2022-12-25T12:53:34.188Z,91.60
2022-12-25T12:56:17.873Z,77.30
2022-12-25T12:58:51.115Z,73.40
2022-12-25T13:01:27.926Z,77.90
2022-12-25T13:04:14.119Z,64.40
2022-12-25T13:09:18.527Z,59.60
2022-12-25T13:11:45.939Z,68.50
2022-12-25T13:14:20.181Z,113.40
2022-12-25T13:16:50.054Z,118.20
2022-12-25T13:19:27.026Z,121.80
2022-12-25T13:21:58.065Z,115.20
2022-12-25T13:24:27.727Z,74.50
2022-12-25T13:26:55.214Z,64.10
2022-12-25T13:29:32.618Z,67.50
2022-12-25T13:32:02.169Z,82.20
2022-12-25T13:34:41.174Z,72.10
2022-12-25T13:37:09.897Z,74.20
2022-12-25T13:39:46.218Z,114.30
2022-12-25T13:42:20.786Z,107.00
2022-12-25T13:45:14.294Z,95.60
2022-12-25T13:47:51.387Z,100.20
2022-12-25T13:50:30.672Z,92.80
2022-12-25T13:53:10.347Z,100.70
2022-12-25T13:55:37.979Z,101.80
2022-12-25T13:58:07.869Z,103.30
2022-12-25T14:00:44.337Z,136.00
2022-12-25T14:03:22.142Z,122.60
2022-12-25T14:06:16.912Z,118.30
2022-12-25T14:08:44.689Z,120.50
2022-12-25T14:11:16.083Z,146.40
2022-12-25T14:13:45.892Z,123.60
2022-12-25T14:16:17.156Z,136.30
2022-12-25T14:19:00.339Z,132.40
2022-12-25T14:21:35.124Z,100.30
2022-12-25T14:24:02.937Z,100.60
2022-12-25T14:26:33.462Z,91.50
2022-12-25T14:29:16.506Z,90.80
2022-12-25T14:31:46.258Z,80.90
2022-12-25T14:34:20.902Z,83.30
2022-12-25T14:36:48.896Z,107.30
2022-12-25T14:39:31.594Z,126.10
2022-12-25T14:41:59.266Z,169.40
2022-12-25T14:44:29.574Z,146.00
2022-12-25T14:47:11.394Z,161.70
2022-12-25T14:49:39.407Z,92.40
2022-12-25T14:52:42.387Z,88.50
2022-12-25T14:55:20.439Z,74.40
2022-12-25T14:57:50.017Z,103.60
2022-12-25T15:00:31.920Z,126.00
2022-12-25T15:03:00.475Z,91.10
2022-12-25T15:05:30.747Z,99.80
2022-12-25T15:08:03.897Z,100.40
2022-12-25T15:13:18.597Z,71.10
2022-12-25T15:15:58.775Z,72.50
2022-12-25T15:18:30.949Z,86.00
2022-12-25T15:20:58.399Z,134.60
2022-12-25T15:23:25.705Z,145.00
2022-12-25T15:25:53.095Z,125.00
2022-12-25T15:28:20.912Z,136.60
2022-12-25T15:30:49.842Z,114.40
2022-12-25T15:33:19.342Z,118.70
2022-12-25T15:35:46.922Z,174.80
2022-12-25T15:38:14.252Z,165.30
2022-12-25T15:40:42.137Z,139.70
2022-12-25T15:43:38.886Z,200.30
2022-12-25T15:46:01.303Z,179.20
2022-12-25T15:48:28.478Z,130.50
2022-12-25T15:50:55.695Z,185.60
2022-12-25T15:53:22.825Z,164.50
2022-12-25T15:55:49.922Z,130.90
2022-12-25T15:58:17.055Z,245.70
2022-12-25T16:00:44.152Z,189.20
2022-12-25T16:03:11.376Z,200.60
2022-12-25T16:05:38.674Z,150.00
2022-12-25T16:08:05.952Z,152.80
2022-12-25T16:10:38.382Z,162.60
2022-12-25T16:13:06.427Z,129.60
2022-12-25T16:15:33.603Z,203.50
2022-12-25T16:18:00.774Z,181.70
2022-12-25T16:20:27.963Z,173.70
2022-12-25T16:22:55.106Z,158.00
2022-12-25T16:25:22.380Z,177.90
2022-12-25T16:27:49.789Z,262.20
2022-12-25T16:30:18.341Z,357.30
2022-12-25T16:32:49.500Z,260.50
2022-12-25T16:35:17.920Z,248.80
2022-12-25T16:37:45.044Z,154.60
2022-12-25T16:40:12.413Z,161.30
2022-12-25T16:42:39.681Z,122.00
2022-12-25T16:45:07.423Z,122.40
2022-12-25T16:47:34.828Z,72.60
2022-12-25T16:50:03.698Z,77.00
2022-12-25T16:52:34.808Z,76.70
2022-12-25T16:55:03.403Z,74.20
2022-12-25T16:57:32.649Z,102.80
2022-12-25T17:00:00.665Z,124.00
2022-12-25T17:02:28.116Z,68.20
2022-12-25T17:04:55.451Z,75.00
2022-12-25T17:07:22.504Z,75.80
2022-12-25T17:09:49.988Z,104.90
2022-12-25T17:12:17.521Z,74.90
2022-12-25T17:14:44.709Z,84.00
2022-12-25T17:17:11.874Z,84.40
2022-12-25T17:19:39.284Z,67.40
2022-12-25T17:22:07.547Z,75.30
2022-12-25T17:24:37.400Z,70.00
2022-12-25T17:27:08.668Z,71.40
2022-12-25T17:29:38.453Z,64.10
2022-12-25T17:32:08.217Z,67.10
2022-12-25T17:34:35.599Z,58.20
2022-12-25T17:37:02.819Z,53.80
2022-12-25T17:39:30.052Z,61.80
2022-12-25T17:41:57.238Z,70.50
2022-12-25T17:44:24.374Z,89.80
2022-12-25T17:46:52.159Z,108.00
2022-12-25T17:49:21.513Z,95.70
2022-12-25T17:51:49.151Z,100.50
2022-12-25T17:54:16.285Z,107.60
2022-12-25T17:56:43.396Z,142.60
2022-12-25T17:59:18.217Z,126.80
2022-12-25T18:01:47.179Z,108.90
2022-12-25T18:04:14.512Z,88.30
2022-12-25T18:06:41.832Z,84.30
2022-12-25T18:09:11.264Z,78.90
2022-12-25T18:11:41.100Z,68.00
2022-12-25T18:14:11.642Z,75.20
2022-12-25T18:16:42.131Z,72.50
2022-12-25T18:19:11.080Z,64.30
2022-12-25T18:21:38.414Z,69.50
2022-12-25T18:24:07.513Z,69.40
2022-12-25T18:26:35.261Z,66.40
2022-12-25T18:29:03.099Z,72.80
2022-12-25T18:31:33.032Z,75.00
2022-12-25T18:34:00.862Z,81.70
2022-12-25T18:36:29.621Z,144.40
2022-12-25T18:38:58.013Z,124.70
2022-12-25T18:41:25.385Z,67.70
2022-12-25T18:43:55.672Z,69.40
2022-12-25T18:46:25.899Z,66.60
2022-12-25T18:48:55.126Z,88.50
2022-12-25T18:51:22.450Z,91.00
2022-12-25T18:53:49.980Z,206.60
2022-12-25T18:56:18.549Z,236.00
2022-12-25T18:58:46.917Z,190.00
2022-12-25T19:01:22.475Z,149.50
2022-12-25T19:06:25.393Z,107.40
2022-12-25T19:08:53.009Z,110.10
2022-12-25T19:11:21.002Z,97.90
2022-12-25T19:13:48.388Z,68.60
2022-12-25T19:16:17.427Z,88.90
2022-12-25T19:18:45.938Z,121.10
2022-12-25T19:21:13.109Z,79.10
2022-12-25T19:23:40.492Z,104.80
2022-12-25T19:26:09.764Z,98.70
2022-12-25T19:28:38.048Z,86.60
2022-12-25T19:31:07.691Z,74.70
2022-12-25T19:33:37.006Z,93.00
2022-12-25T19:36:10.379Z,91.50
2022-12-25T19:38:37.939Z,73.90
2022-12-25T19:41:14.460Z,53.70
2022-12-25T19:43:42.587Z,71.80
2022-12-25T19:46:19.025Z,78.90
2022-12-25T19:48:46.740Z,64.00
2022-12-25T19:51:18.999Z,64.70
2022-12-25T19:53:46.914Z,69.10
2022-12-25T19:56:15.077Z,66.90
2022-12-25T19:58:42.434Z,67.90
2022-12-25T20:01:13.620Z,70.40
2022-12-25T20:03:46.656Z,64.40
2022-12-25T20:06:18.965Z,51.00
2022-12-25T20:08:57.991Z,55.20
2022-12-25T20:11:27.976Z,54.80
2022-12-25T20:13:56.113Z,61.50
2022-12-25T20:16:24.188Z,60.70
2022-12-25T20:18:51.906Z,53.60
2022-12-25T20:21:22.192Z,53.90
2022-12-25T20:23:51.771Z,45.40
2022-12-25T20:26:22.780Z,47.70
2022-12-25T20:28:50.325Z,38.80
2022-12-25T20:31:23.394Z,49.90
2022-12-25T20:33:50.951Z,43.50
2022-12-25T20:36:19.039Z,41.50
2022-12-25T20:38:46.199Z,44.00
2022-12-25T20:41:31.454Z,49.10
2022-12-25T20:43:58.738Z,56.10
2022-12-25T20:46:27.586Z,47.00
2022-12-25T20:48:55.028Z,47.50
2022-12-25T20:51:24.874Z,41.90
2022-12-25T20:53:53.137Z,37.50
2022-12-25T20:56:22.848Z,39.50
2022-12-25T20:58:58.310Z,40.70
2022-12-25T21:01:29.204Z,45.20
2022-12-25T21:03:57.221Z,38.00
2022-12-25T21:06:24.925Z,46.00
2022-12-25T21:08:52.044Z,45.70
2022-12-25T21:11:21.472Z,49.70
2022-12-25T21:13:49.164Z,64.60
2022-12-25T21:16:20.381Z,55.10
2022-12-25T21:18:49.200Z,53.80
2022-12-25T21:21:16.537Z,55.80
2022-12-25T21:23:44.072Z,59.70
2022-12-25T21:26:23.076Z,88.20
2022-12-25T21:28:52.704Z,110.80
2022-12-25T21:31:20.859Z,94.00
2022-12-25T21:33:53.807Z,100.40
2022-12-25T21:36:25.301Z,106.30
2022-12-25T21:38:57.638Z,108.10
2022-12-25T21:41:25.940Z,181.20
2022-12-25T21:43:53.810Z,104.40
2022-12-25T21:46:21.603Z,62.20
2022-12-25T21:48:49.207Z,49.00
2022-12-25T21:51:40.935Z,44.90
2022-12-25T21:54:08.978Z,66.40
2022-12-25T21:56:43.622Z,67.40
2022-12-25T21:59:15.599Z,52.70
2022-12-25T22:01:43.209Z,47.60
2022-12-25T22:04:11.699Z,48.10
2022-12-25T22:06:57.894Z,51.00
2022-12-25T22:09:25.284Z,48.50
2022-12-25T22:12:10.955Z,38.30
2022-12-25T22:14:54.061Z,47.30
2022-12-25T22:17:48.109Z,43.40
2022-12-25T22:20:22.072Z,33.20
2022-12-25T22:22:49.423Z,58.50
2022-12-25T22:25:17.504Z,64.00
2022-12-25T22:27:46.694Z,56.00
2022-12-25T22:30:21.956Z,50.60
2022-12-25T22:32:49.494Z,53.30
2022-12-25T22:35:17.286Z,54.40
2022-12-25T22:37:44.594Z,41.70
2022-12-25T22:40:16.270Z,55.00
2022-12-25T22:42:43.653Z,72.80
2022-12-25T22:45:12.062Z,127.10
2022-12-25T22:47:39.466Z,203.60
2022-12-25T22:50:07.072Z,231.70
2022-12-25T22:52:34.307Z,79.60
2022-12-25T22:55:02.600Z,63.30
2022-12-25T22:57:29.811Z,130.30
2022-12-25T22:59:57.090Z,112.20
2022-12-25T23:02:24.416Z,315.80
2022-12-25T23:04:51.728Z,127.10
2022-12-25T23:07:19.122Z,73.50
2022-12-25T23:09:46.559Z,98.80
2022-12-25T23:12:33.736Z,71.00
2022-12-25T23:15:00.906Z,73.40
2022-12-25T23:17:46.624Z,215.90
2022-12-25T23:20:33.523Z,71.40
2022-12-25T23:23:19.623Z,65.60
2022-12-25T23:28:51.095Z,68.60
2022-12-25T23:31:20.743Z,79.20
2022-12-25T23:33:48.014Z,79.20
2022-12-25T23:36:15.211Z,67.90
2022-12-25T23:38:42.391Z,58.00
2022-12-25T23:41:09.542Z,147.30
2022-12-25T23:43:36.731Z,187.80
2022-12-25T23:46:04.038Z,111.80
2022-12-25T23:48:31.354Z,80.70
2022-12-25T23:51:03.953Z,69.70
2022-12-25T23:53:32.000Z,71.40
2022-12-25T23:55:59.865Z,73.30
2022-12-25T23:58:28.500Z,69.90
